Time;durP1;ratioP1;P1;durP2;ratioP2;P2;SDS_P1;SDS_P2;PMS_P1;PMS_P2;Temp;Humidity;BMP_temperature;BMP_pressure;BME280_temperature;BME280_humidity;BME280_pressure;Samples;Min_cycle;Max_cycle;Signal;HPM_P1;HPM_P2
2022/02/19 00:02:11;;;;;;;4.63;2.10;;;9.10;99.90;;;;;;5043882;28;20182;-71
2022/02/19 00:04:37;;;;;;;6.90;2.00;;;9.10;99.90;;;;;;5043371;28;20504;-70
2022/02/19 00:07:06;;;;;;;4.70;2.20;;;9.00;99.90;;;;;;5043577;28;20541;-73
2022/02/19 00:09:32;;;;;;;4.67;1.53;;;9.00;99.90;;;;;;5043130;28;20222;-72
2022/02/19 00:11:57;;;;;;;4.00;2.00;;;9.10;99.90;;;;;;5043400;28;20431;-71
2022/02/19 00:14:23;;;;;;;5.57;1.73;;;9.00;99.90;;;;;;5045533;28;21474;-72
2022/02/19 00:16:49;;;;;;;3.83;2.00;;;8.90;99.90;;;;;;5047143;28;20212;-73
2022/02/19 00:19:16;;;;;;;6.90;2.10;;;9.00;99.90;;;;;;5047472;28;20181;-73
2022/02/19 00:21:41;;;;;;;4.53;1.80;;;9.00;99.90;;;;;;5047502;28;20207;-73
2022/02/19 00:24:07;;;;;;;5.20;1.60;;;9.00;99.90;;;;;;5047273;28;20411;-73
2022/02/19 00:26:33;;;;;;;5.17;1.93;;;8.90;99.90;;;;;;5037690;28;20208;-72
2022/02/19 00:28:59;;;;;;;5.07;2.07;;;8.90;99.90;;;;;;5047059;28;20188;-71
2022/02/19 00:31:25;;;;;;;7.30;2.20;;;8.90;99.90;;;;;;5039409;28;20436;-73
2022/02/19 00:33:50;;;;;;;5.17;2.23;;;8.90;99.90;;;;;;5047251;28;20182;-72
2022/02/19 00:36:16;;;;;;;6.27;2.13;;;9.00;99.90;;;;;;5047295;28;20663;-73
2022/02/19 00:38:41;;;;;;;8.80;2.27;;;9.10;99.90;;;;;;5046811;28;20185;-73
2022/02/19 00:41:07;;;;;;;6.30;2.17;;;9.10;99.90;;;;;;5046975;28;20220;-73
2022/02/19 00:43:33;;;;;;;9.93;2.03;;;9.20;99.90;;;;;;5046155;28;20191;-73
2022/02/19 00:45:58;;;;;;;6.93;2.27;;;9.10;99.90;;;;;;5064053;22;20240;-73
2022/02/19 00:48:24;;;;;;;6.10;2.00;;;9.00;99.90;;;;;;5046349;28;20181;-73
2022/02/19 00:50:50;;;;;;;7.43;2.10;;;8.90;99.90;;;;;;5044987;28;20238;-74
2022/02/19 00:53:16;;;;;;;8.10;1.97;;;8.90;99.90;;;;;;5046215;28;20189;-71
2022/02/19 00:55:42;;;;;;;4.07;1.70;;;8.90;99.90;;;;;;5045723;28;20447;-71
2022/02/19 00:58:08;;;;;;;5.50;2.40;;;8.90;99.90;;;;;;5046143;28;20408;-71
2022/02/19 01:00:34;;;;;;;11.33;1.77;;;8.90;99.90;;;;;;5046410;28;20433;-72
2022/02/19 01:03:00;;;;;;;6.50;2.17;;;8.90;99.90;;;;;;5048208;28;20552;-72
2022/02/19 01:05:26;;;;;;;4.70;1.57;;;8.90;99.90;;;;;;5046595;28;20523;-74
2022/02/19 01:07:52;;;;;;;5.03;2.10;;;8.90;99.90;;;;;;5033064;28;20174;-72
2022/02/19 01:10:18;;;;;;;4.60;2.17;;;9.00;99.90;;;;;;5030936;28;20769;-72
2022/02/19 01:12:44;;;;;;;3.97;2.00;;;8.80;99.50;;;;;;5045651;28;20184;-72
2022/02/19 01:15:11;;;;;;;6.80;1.97;;;8.90;99.90;;;;;;5045332;28;20437;-73
2022/02/19 01:17:40;;;;;;;5.13;1.87;;;8.90;99.90;;;;;;5027454;28;20478;-74
2022/02/19 01:20:11;;;;;;;6.30;1.90;;;8.90;99.90;;;;;;5045217;28;20433;-73
2022/02/19 01:22:42;;;;;;;7.77;2.67;;;8.90;99.90;;;;;;5045481;28;20476;-72
2022/02/19 01:25:10;;;;;;;7.27;2.53;;;8.90;99.80;;;;;;5044713;28;20437;-73
2022/02/19 01:27:36;;;;;;;6.67;1.97;;;8.90;99.70;;;;;;5045292;28;20455;-75
2022/02/19 01:30:04;;;;;;;5.20;1.97;;;8.80;99.70;;;;;;5027277;28;20466;-72
2022/02/19 01:32:30;;;;;;;8.10;2.10;;;8.90;99.90;;;;;;5045527;28;20768;-72
2022/02/19 01:34:55;;;;;;;3.57;1.87;;;8.70;99.60;;;;;;5039764;28;20442;-72
2022/02/19 01:37:21;;;;;;;3.90;1.57;;;8.80;99.70;;;;;;5044589;28;20587;-71
2022/02/19 01:39:47;;;;;;;6.40;2.00;;;8.80;99.90;;;;;;5045109;28;20649;-71
2022/02/19 01:42:12;;;;;;;4.67;1.93;;;8.90;99.90;;;;;;5045295;28;20211;-71
2022/02/19 01:44:42;;;;;;;4.63;1.90;;;8.80;99.40;;;;;;5044369;28;20580;-73
2022/02/19 01:47:08;;;;;;;6.47;1.90;;;8.90;99.30;;;;;;5044644;28;20195;-71
2022/02/19 01:49:34;;;;;;;8.17;1.93;;;8.90;99.50;;;;;;5038943;28;20772;-73
2022/02/19 01:52:00;;;;;;;3.93;1.90;;;8.80;99.60;;;;;;5044706;28;20903;-72
2022/02/19 01:54:25;;;;;;;5.13;2.23;;;8.70;98.80;;;;;;5044772;28;20669;-75
2022/02/19 01:56:52;;;;;;;4.30;1.53;;;8.70;99.10;;;;;;5044799;28;20409;-71
2022/02/19 01:59:18;;;;;;;5.40;2.17;;;8.60;98.80;;;;;;5044279;28;20186;-73
2022/02/19 02:01:43;;;;;;;4.57;1.43;;;8.70;98.90;;;;;;5044680;28;20432;-71
2022/02/19 02:04:09;;;;;;;6.27;2.03;;;8.60;98.60;;;;;;5044400;28;20191;-71
2022/02/19 02:06:36;;;;;;;6.10;2.27;;;8.60;98.60;;;;;;5044334;28;20196;-71
2022/02/19 02:09:03;;;;;;;5.67;2.07;;;8.60;98.50;;;;;;5043721;28;20515;-72
2022/02/19 02:11:30;;;;;;;7.30;3.00;;;8.70;98.60;;;;;;5044369;28;20490;-71
2022/02/19 02:13:55;;;;;;;9.93;2.37;;;8.60;97.80;;;;;;5044577;28;20982;-75
2022/02/19 02:16:21;;;;;;;4.77;2.13;;;8.60;97.80;;;;;;5044160;28;20529;-71
2022/02/19 02:18:47;;;;;;;3.10;1.70;;;8.50;98.30;;;;;;5044464;28;20775;-74
2022/02/19 02:21:13;;;;;;;6.13;1.77;;;8.50;97.80;;;;;;5044094;28;20423;-72
2022/02/19 02:23:38;;;;;;;5.33;2.30;;;8.50;97.50;;;;;;5035748;28;20188;-72
2022/02/19 02:26:05;;;;;;;6.00;1.87;;;8.50;97.80;;;;;;5044166;28;20208;-72
2022/02/19 02:28:30;;;;;;;4.30;1.43;;;8.60;98.30;;;;;;5026922;28;20289;-72
2022/02/19 02:30:56;;;;;;;6.63;2.20;;;8.60;97.80;;;;;;5044716;28;20507;-72
2022/02/19 02:33:23;;;;;;;6.13;1.63;;;8.50;97.70;;;;;;5044788;28;20196;-71
2022/02/19 02:35:49;;;;;;;3.90;1.67;;;8.60;98.10;;;;;;5044680;28;20231;-72
2022/02/19 02:38:16;;;;;;;6.13;2.03;;;8.50;98.10;;;;;;5043552;28;20429;-74
2022/02/19 02:40:41;;;;;;;6.83;2.50;;;8.40;98.20;;;;;;5044374;28;20411;-70
2022/02/19 02:43:07;;;;;;;6.10;2.30;;;8.30;97.90;;;;;;5044088;28;20480;-71
2022/02/19 02:45:33;;;;;;;6.43;2.33;;;8.30;98.00;;;;;;5043140;28;20611;-74
2022/02/19 02:47:58;;;;;;;8.03;2.50;;;8.30;98.20;;;;;;5043903;28;20181;-71
2022/02/19 02:50:24;;;;;;;7.50;2.40;;;8.30;98.00;;;;;;5043643;28;20172;-71
2022/02/19 02:52:50;;;;;;;4.87;2.00;;;8.30;98.10;;;;;;5043815;28;20182;-71
2022/02/19 02:55:15;;;;;;;4.43;2.07;;;8.20;97.80;;;;;;5043527;28;20197;-70
2022/02/19 02:57:42;;;;;;;5.93;2.03;;;8.30;98.00;;;;;;5043559;28;20720;-74
2022/02/19 03:00:11;;;;;;;5.93;1.83;;;8.30;98.10;;;;;;5043639;28;20180;-71
2022/02/19 03:02:37;;;;;;;5.87;2.30;;;8.30;97.80;;;;;;5027440;28;20501;-70
2022/02/19 03:05:05;;;;;;;3.50;2.10;;;8.20;98.10;;;;;;5043502;28;20480;-73
2022/02/19 03:07:31;;;;;;;7.67;2.73;;;8.20;98.00;;;;;;5037414;28;20462;-71
2022/02/19 03:09:57;;;;;;;4.90;2.07;;;8.30;98.10;;;;;;5043563;28;20514;-71
2022/02/19 03:12:23;;;;;;;12.13;2.20;;;8.20;97.90;;;;;;5043581;28;20457;-72
2022/02/19 03:14:49;;;;;;;6.83;2.07;;;8.30;98.30;;;;;;5043097;28;20580;-72
2022/02/19 03:17:15;;;;;;;5.63;1.90;;;8.30;98.30;;;;;;5043548;28;20434;-71
2022/02/19 03:19:40;;;;;;;7.37;2.20;;;8.10;98.10;;;;;;5035697;28;20253;-72
2022/02/19 03:22:06;;;;;;;3.63;2.23;;;8.10;98.40;;;;;;5043490;28;20175;-72
2022/02/19 03:24:32;;;;;;;6.30;1.93;;;8.10;98.40;;;;;;5043529;28;20206;-71
2022/02/19 03:27:02;;;;;;;4.77;2.10;;;8.10;98.40;;;;;;5043154;28;20211;-72
2022/02/19 03:29:28;;;;;;;3.60;1.73;;;8.00;98.30;;;;;;5043345;28;20168;-76
2022/02/19 03:31:55;;;;;;;6.90;2.30;;;8.10;98.40;;;;;;5043386;28;20416;-72
2022/02/19 03:34:21;;;;;;;7.00;2.10;;;8.00;98.30;;;;;;5043654;28;20465;-74
2022/02/19 03:36:46;;;;;;;8.03;2.03;;;8.00;98.10;;;;;;5043522;28;20510;-71
2022/02/19 03:39:12;;;;;;;4.63;2.00;;;8.00;98.30;;;;;;5043271;28;20911;-71
2022/02/19 03:41:38;;;;;;;6.07;1.90;;;8.00;98.20;;;;;;5043349;28;20192;-71
2022/02/19 03:44:04;;;;;;;12.93;2.80;;;8.00;97.90;;;;;;5042964;28;20181;-72
2022/02/19 03:46:31;;;;;;;6.90;2.23;;;7.90;98.20;;;;;;5042853;28;20715;-70
2022/02/19 03:48:56;;;;;;;5.87;2.30;;;7.90;98.40;;;;;;5044743;28;20417;-71
2022/02/19 03:51:22;;;;;;;10.53;2.03;;;7.80;98.30;;;;;;5046956;28;20423;-71
2022/02/19 03:53:48;;;;;;;7.37;2.10;;;7.80;98.50;;;;;;5029295;28;20182;-71
2022/02/19 03:56:13;;;;;;;8.67;2.40;;;7.90;98.80;;;;;;5046889;28;20206;-72
2022/02/19 03:58:39;;;;;;;9.30;2.13;;;7.90;98.50;;;;;;5046413;28;20181;-72
2022/02/19 04:01:05;;;;;;;7.70;2.47;;;7.90;98.70;;;;;;5046377;28;20835;-72
2022/02/19 04:03:30;;;;;;;7.03;2.20;;;7.90;99.00;;;;;;5047214;28;20188;-72
2022/02/19 04:05:57;;;;;;;9.40;2.10;;;7.80;98.90;;;;;;5046788;28;20202;-72
2022/02/19 04:08:23;;;;;;;5.90;1.63;;;7.70;98.70;;;;;;5046782;28;20175;-71
2022/02/19 04:10:49;;;;;;;6.43;1.40;;;7.70;98.90;;;;;;5046790;28;20806;-74
2022/02/19 04:13:15;;;;;;;5.90;2.00;;;7.60;98.60;;;;;;5046254;28;20429;-71
2022/02/19 04:15:41;;;;;;;6.33;2.07;;;7.60;98.70;;;;;;5046505;28;20743;-72
2022/02/19 04:18:06;;;;;;;8.70;2.17;;;7.60;99.00;;;;;;5046414;28;20179;-72
2022/02/19 04:20:32;;;;;;;8.43;2.33;;;7.60;98.80;;;;;;5046659;28;20456;-71
2022/02/19 04:22:58;;;;;;;4.50;1.87;;;7.50;98.20;;;;;;5046661;28;20269;-71
2022/02/19 04:25:25;;;;;;;3.07;1.77;;;7.60;98.00;;;;;;5046408;28;20207;-72
2022/02/19 04:27:55;;;;;;;5.07;2.03;;;7.60;98.10;;;;;;5046238;28;20197;-76
2022/02/19 04:30:22;;;;;;;11.07;2.13;;;7.50;98.40;;;;;;5046376;28;20416;-72
2022/02/19 04:32:48;;;;;;;4.00;1.73;;;7.60;98.50;;;;;;5049002;28;20438;-73
2022/02/19 04:35:13;;;;;;;4.80;1.50;;;7.40;98.10;;;;;;5046449;28;20433;-72
2022/02/19 04:37:40;;;;;;;7.00;2.27;;;7.40;98.00;;;;;;5046677;28;20546;-73
2022/02/19 04:40:07;;;;;;;4.70;1.93;;;7.30;98.10;;;;;;5046226;28;20171;-71
2022/02/19 04:42:34;;;;;;;10.60;2.07;;;7.30;98.30;;;;;;5046320;28;20413;-72
2022/02/19 04:45:00;;;;;;;5.17;1.70;;;7.20;98.30;;;;;;5045660;28;20457;-74
2022/02/19 04:47:25;;;;;;;3.57;1.50;;;7.20;98.30;;;;;;5046294;28;21007;-75
2022/02/19 04:49:51;;;;;;;4.30;1.50;;;7.20;98.40;;;;;;5046247;28;20261;-72
2022/02/19 04:52:17;;;;;;;3.87;1.37;;;7.10;98.30;;;;;;5045952;28;20703;-72
2022/02/19 04:54:42;;;;;;;4.50;1.80;;;7.10;98.40;;;;;;5046143;28;20199;-73
2022/02/19 04:57:08;;;;;;;7.20;2.10;;;7.10;98.60;;;;;;5045264;28;20182;-75
2022/02/19 04:59:33;;;;;;;3.70;1.83;;;7.10;98.70;;;;;;5045454;28;20291;-72
2022/02/19 05:01:59;;;;;;;8.37;2.10;;;7.10;98.60;;;;;;5044604;28;20186;-72
2022/02/19 05:04:25;;;;;;;7.67;2.33;;;7.20;98.60;;;;;;5046011;28;20206;-72
2022/02/19 05:06:50;;;;;;;4.30;1.50;;;7.10;98.60;;;;;;5045956;28;20235;-72
2022/02/19 05:09:16;;;;;;;10.97;2.03;;;7.10;98.90;;;;;;5046275;28;20171;-73
2022/02/19 05:11:42;;;;;;;7.30;2.27;;;7.00;98.70;;;;;;5045473;28;20685;-73
2022/02/19 05:14:07;;;;;;;5.20;2.03;;;7.00;98.70;;;;;;5045967;28;20182;-73
2022/02/19 05:16:33;;;;;;;4.47;1.60;;;6.90;98.70;;;;;;5045225;28;20254;-74
2022/02/19 05:18:59;;;;;;;6.97;2.23;;;7.00;98.60;;;;;;5045398;28;20250;-73
2022/02/19 05:21:24;;;;;;;4.33;1.40;;;7.00;98.40;;;;;;5045004;28;20710;-72
2022/02/19 05:23:50;;;;;;;7.60;1.83;;;7.00;98.50;;;;;;5045389;28;20261;-72
2022/02/19 05:26:16;;;;;;;11.47;2.50;;;6.90;98.50;;;;;;5044894;28;20211;-74
2022/02/19 05:28:41;;;;;;;5.10;1.70;;;7.00;98.60;;;;;;5044317;28;20185;-72
2022/02/19 05:31:08;;;;;;;6.63;1.93;;;6.90;98.50;;;;;;5044776;28;20409;-72
2022/02/19 05:33:33;;;;;;;7.30;2.20;;;7.00;98.90;;;;;;5045300;28;20552;-73
2022/02/19 05:35:59;;;;;;;4.97;2.20;;;7.00;98.80;;;;;;5043644;28;20441;-72
2022/02/19 05:38:25;;;;;;;4.90;1.53;;;6.90;98.60;;;;;;5029506;28;20198;-72
2022/02/19 05:40:52;;;;;;;4.67;1.90;;;7.00;98.60;;;;;;5044979;28;20186;-74
2022/02/19 05:43:18;;;;;;;13.17;2.70;;;7.00;98.60;;;;;;5043423;28;20486;-73
2022/02/19 05:45:46;;;;;;;4.63;1.70;;;6.90;98.80;;;;;;5044388;28;20456;-73
2022/02/19 05:48:12;;;;;;;11.70;2.63;;;6.80;98.90;;;;;;5044968;28;20189;-72
2022/02/19 05:50:37;;;;;;;6.43;2.00;;;6.80;99.00;;;;;;5044576;28;20517;-73
2022/02/19 05:53:04;;;;;;;5.77;1.90;;;6.80;99.20;;;;;;5044960;28;20496;-73
2022/02/19 05:55:30;;;;;;;7.13;2.47;;;6.80;99.00;;;;;;5042970;28;21107;-72
2022/02/19 05:57:56;;;;;;;8.00;2.20;;;6.80;99.30;;;;;;5044876;28;20425;-71
2022/02/19 06:00:22;;;;;;;7.13;2.10;;;6.80;99.00;;;;;;5044413;28;20826;-73
2022/02/19 06:02:48;;;;;;;7.30;2.37;;;6.80;99.10;;;;;;5045134;28;20180;-71
2022/02/19 06:05:13;;;;;;;8.43;2.27;;;6.80;99.30;;;;;;5044373;28;20879;-70
2022/02/19 06:07:41;;;;;;;5.03;1.80;;;6.90;99.10;;;;;;5038575;28;20202;-72
2022/02/19 06:10:07;;;;;;;5.37;1.80;;;6.80;99.40;;;;;;5044771;28;20234;-73
2022/02/19 06:12:33;;;;;;;9.07;1.83;;;6.70;99.10;;;;;;5044332;28;20446;-72
2022/02/19 06:14:59;;;;;;;3.70;1.70;;;6.60;99.40;;;;;;5044528;28;20465;-70
2022/02/19 06:17:24;;;;;;;4.67;1.93;;;6.60;99.40;;;;;;5034084;28;20182;-73
2022/02/19 06:19:50;;;;;;;7.70;3.10;;;6.60;99.60;;;;;;5026097;28;20594;-74
2022/02/19 06:22:16;;;;;;;5.00;1.93;;;6.60;99.40;;;;;;5044311;28;20176;-74
2022/02/19 06:24:41;;;;;;;5.20;1.90;;;6.60;99.50;;;;;;5044155;28;20664;-72
2022/02/19 06:27:07;;;;;;;7.97;2.23;;;6.60;99.50;;;;;;5044113;28;20294;-71
2022/02/19 06:29:33;;;;;;;6.17;2.07;;;6.50;99.60;;;;;;5044293;28;20265;-73
2022/02/19 06:31:58;;;;;;;8.03;2.40;;;6.40;99.50;;;;;;5043784;28;20282;-73
2022/02/19 06:34:24;;;;;;;4.17;1.90;;;6.40;99.70;;;;;;5044186;28;21302;-72
2022/02/19 06:36:49;;;;;;;6.93;2.10;;;6.40;99.70;;;;;;5044079;28;20188;-71
2022/02/19 06:39:15;;;;;;;5.30;2.07;;;6.50;99.80;;;;;;5043989;28;20195;-72
2022/02/19 06:41:41;;;;;;;4.77;1.90;;;6.40;99.80;;;;;;5043933;28;20220;-71
2022/02/19 06:44:06;;;;;;;6.70;1.70;;;6.40;99.60;;;;;;5043569;28;20926;-71
2022/02/19 06:46:32;;;;;;;4.17;1.80;;;6.40;99.60;;;;;;5070095;22;20257;-69
2022/02/19 06:48:58;;;;;;;5.33;1.90;;;6.50;99.80;;;;;;5046798;28;20639;-73
2022/02/19 06:51:25;;;;;;;7.00;1.97;;;6.40;99.60;;;;;;5050605;28;20185;-72
2022/02/19 06:53:56;;;;;;;7.10;1.93;;;6.50;99.90;;;;;;5056929;28;20174;-72
2022/02/19 06:56:25;;;;;;;5.60;2.30;;;6.40;99.80;;;;;;5030676;28;20448;-71
2022/02/19 06:58:52;;;;;;;10.23;2.00;;;6.40;99.80;;;;;;5044389;28;20907;-73
2022/02/19 07:01:17;;;;;;;8.97;2.37;;;6.50;99.90;;;;;;5026306;28;20426;-73
2022/02/19 07:03:43;;;;;;;5.57;1.87;;;6.50;99.70;;;;;;5044203;28;20458;-71
2022/02/19 07:06:09;;;;;;;6.37;2.20;;;6.40;99.80;;;;;;5025824;28;20752;-73
2022/02/19 07:08:34;;;;;;;8.77;2.10;;;6.30;99.90;;;;;;5043949;28;20170;-71
2022/02/19 07:11:00;;;;;;;6.17;1.97;;;6.40;99.90;;;;;;5044058;28;20174;-73
2022/02/19 07:13:25;;;;;;;9.87;2.67;;;6.40;99.80;;;;;;5043845;28;20206;-72
2022/02/19 07:15:51;;;;;;;11.20;2.60;;;6.40;99.90;;;;;;5025893;28;20203;-71
2022/02/19 07:18:17;;;;;;;11.50;2.77;;;6.40;99.90;;;;;;5025422;28;20171;-72
2022/02/19 07:20:42;;;;;;;5.23;1.60;;;6.50;99.90;;;;;;5043980;28;20175;-71
2022/02/19 07:23:08;;;;;;;5.33;1.97;;;6.50;99.80;;;;;;5045119;28;20178;-72
2022/02/19 07:25:34;;;;;;;7.87;2.43;;;6.60;99.80;;;;;;5032598;28;20207;-72
2022/02/19 07:28:00;;;;;;;4.77;1.87;;;6.60;99.80;;;;;;5032486;28;20183;-71
2022/02/19 07:30:26;;;;;;;11.40;2.10;;;6.50;99.50;;;;;;5049870;28;20179;-73
2022/02/19 07:32:52;;;;;;;5.07;2.40;;;6.50;99.70;;;;;;5050539;28;20447;-72
2022/02/19 07:35:19;;;;;;;5.63;1.97;;;6.50;99.80;;;;;;5050262;28;20459;-72
2022/02/19 07:37:44;;;;;;;7.30;2.07;;;6.50;99.60;;;;;;5050492;28;20493;-72
2022/02/19 07:40:10;;;;;;;5.30;1.67;;;6.50;99.70;;;;;;5032407;28;20961;-72
2022/02/19 07:42:37;;;;;;;5.60;2.20;;;6.60;99.70;;;;;;5050833;28;20921;-73
2022/02/19 07:45:04;;;;;;;6.07;2.17;;;6.70;99.80;;;;;;5050038;28;20440;-72
2022/02/19 07:47:32;;;;;;;7.00;3.43;;;6.70;99.70;;;;;;5050558;28;20448;-72
2022/02/19 07:58:22;;;;;;;20.23;12.83;;;7.10;99.40;;;;;;5050606;28;20773;-72
2022/02/19 08:00:50;;;;;;;25.20;14.80;;;7.10;99.50;;;;;;5049599;28;20405;-73
2022/02/19 08:03:16;;;;;;;11.70;6.40;;;7.30;99.40;;;;;;5050164;28;20420;-71
2022/02/19 08:05:43;;;;;;;11.57;5.00;;;7.30;99.50;;;;;;5050385;28;20424;-72
2022/02/19 08:08:09;;;;;;;5.90;2.77;;;7.30;99.30;;;;;;5032083;28;20409;-70
2022/02/19 08:10:38;;;;;;;12.93;3.20;;;7.30;99.10;;;;;;5050172;28;20528;-73
2022/02/19 08:13:04;;;;;;;5.17;2.53;;;7.40;99.00;;;;;;5032137;28;21491;-73
2022/02/19 08:15:31;;;;;;;7.50;4.20;;;7.40;99.20;;;;;;5031570;28;20467;-70
2022/02/19 08:17:57;;;;;;;16.07;5.00;;;7.20;99.10;;;;;;5031887;28;20683;-72
2022/02/19 08:20:23;;;;;;;7.73;5.67;;;7.20;99.30;;;;;;5050438;28;20492;-72
2022/02/19 08:22:48;;;;;;;11.97;10.17;;;7.20;99.20;;;;;;5031974;28;20520;-70
2022/02/19 08:25:14;;;;;;;11.37;9.00;;;7.30;99.30;;;;;;5050097;28;20205;-70
2022/02/19 08:27:39;;;;;;;19.50;7.93;;;7.40;99.20;;;;;;5049627;28;20199;-71
2022/02/19 08:30:07;;;;;;;4.37;2.57;;;7.40;99.10;;;;;;5032197;28;20191;-71
2022/02/19 08:32:33;;;;;;;3.60;2.20;;;7.40;99.10;;;;;;5031906;28;20194;-71
2022/02/19 08:34:58;;;;;;;6.13;3.20;;;7.30;99.00;;;;;;5030308;28;20439;-70
2022/02/19 08:37:24;;;;;;;5.83;3.47;;;7.20;99.00;;;;;;5047007;28;20614;-71
2022/02/19 08:39:50;;;;;;;8.63;2.73;;;7.20;99.20;;;;;;5047365;28;21251;-70
2022/02/19 08:42:16;;;;;;;4.70;2.00;;;7.20;99.30;;;;;;5046830;28;20410;-71
2022/02/19 08:44:42;;;;;;;8.80;2.50;;;7.20;99.40;;;;;;5047026;28;20227;-71
2022/02/19 08:47:07;;;;;;;6.53;3.17;;;7.20;99.30;;;;;;5046528;28;20207;-70
2022/02/19 08:49:33;;;;;;;4.17;2.50;;;7.30;99.20;;;;;;5046725;28;20418;-71
2022/02/19 08:52:00;;;;;;;6.03;2.10;;;7.30;99.10;;;;;;5046895;28;20184;-71
2022/02/19 08:54:26;;;;;;;7.47;2.53;;;7.40;99.10;;;;;;5046502;28;20213;-72
2022/02/19 08:56:52;;;;;;;4.87;1.67;;;7.50;99.00;;;;;;5046191;28;20439;-70
2022/02/19 08:59:18;;;;;;;6.17;2.40;;;7.60;98.90;;;;;;5046704;28;20417;-72
2022/02/19 09:01:44;;;;;;;8.57;2.00;;;7.70;98.50;;;;;;5027997;28;20425;-70
2022/02/19 09:04:10;;;;;;;6.17;2.90;;;7.60;98.60;;;;;;5046504;28;20182;-71
2022/02/19 09:06:36;;;;;;;8.03;2.27;;;7.60;98.40;;;;;;5045990;28;20517;-72
2022/02/19 09:09:05;;;;;;;6.10;1.90;;;7.50;98.60;;;;;;5046441;28;20417;-70
2022/02/19 09:11:31;;;;;;;4.17;2.07;;;7.50;98.80;;;;;;5046292;28;20492;-71
2022/02/19 09:13:58;;;;;;;12.10;2.10;;;7.70;98.80;;;;;;5046198;28;20510;-72
2022/02/19 09:16:29;;;;;;;5.37;1.90;;;7.90;98.70;;;;;;5027831;28;20429;-70
2022/02/19 09:18:55;;;;;;;7.27;2.57;;;7.70;98.60;;;;;;5045884;28;20410;-70
2022/02/19 09:21:22;;;;;;;3.37;1.90;;;7.70;98.40;;;;;;5046668;28;20853;-72
2022/02/19 09:23:47;;;;;;;8.73;2.50;;;7.60;98.40;;;;;;5048610;28;20417;-72
2022/02/19 09:26:13;;;;;;;7.93;2.07;;;7.60;98.40;;;;;;5045799;28;20808;-70
2022/02/19 09:28:39;;;;;;;6.80;1.90;;;7.60;98.40;;;;;;5045647;28;20205;-72
2022/02/19 09:31:05;;;;;;;7.97;2.50;;;7.70;98.60;;;;;;5027509;28;20187;-72
2022/02/19 09:33:31;;;;;;;4.17;1.73;;;7.70;98.20;;;;;;5045975;28;20792;-72
2022/02/19 09:35:57;;;;;;;3.57;1.73;;;7.70;98.00;;;;;;5027802;28;20426;-71
2022/02/19 09:38:23;;;;;;;5.43;1.40;;;7.60;97.80;;;;;;5045935;28;20176;-72
2022/02/19 09:40:48;;;;;;;7.33;2.03;;;7.60;98.00;;;;;;5045862;28;20412;-71
2022/02/19 09:43:17;;;;;;;5.00;1.80;;;7.60;97.50;;;;;;5027768;28;20190;-72
2022/02/19 09:45:45;;;;;;;7.40;1.83;;;7.80;97.50;;;;;;5044852;28;20303;-72
2022/02/19 09:48:12;;;;;;;4.83;1.63;;;7.80;97.20;;;;;;5045665;28;20506;-72
2022/02/19 09:50:38;;;;;;;5.23;1.60;;;7.90;97.00;;;;;;5045610;28;20414;-71
2022/02/19 09:53:04;;;;;;;9.60;2.13;;;7.90;97.10;;;;;;5046005;28;20428;-71
2022/02/19 09:55:33;;;;;;;6.70;1.73;;;7.90;97.00;;;;;;5045330;28;20451;-73
2022/02/19 09:57:59;;;;;;;8.27;2.50;;;8.00;97.10;;;;;;5027735;28;20877;-73
2022/02/19 10:00:36;;;;;;;4.20;1.80;;;8.10;97.30;;;;;;5045825;28;20436;-72
2022/02/19 10:03:02;;;;;;;5.80;2.20;;;8.10;96.90;;;;;;5045559;28;20438;-71
2022/02/19 10:05:32;;;;;;;9.00;1.90;;;8.20;96.90;;;;;;5045633;28;20479;-69
2022/02/19 10:08:16;;;;;;;3.30;1.97;;;8.30;96.80;;;;;;5045379;28;20199;-72
2022/02/19 10:10:50;;;;;;;6.23;3.33;;;8.20;96.80;;;;;;5045363;28;20910;-72
2022/02/19 10:13:35;;;;;;;5.47;2.13;;;8.20;96.80;;;;;;5045108;28;20868;-72
2022/02/19 10:16:08;;;;;;;5.13;1.53;;;8.30;96.60;;;;;;5044486;28;20431;-73
2022/02/19 10:18:35;;;;;;;6.33;1.90;;;8.40;96.50;;;;;;5044914;28;20414;-70
2022/02/19 10:21:14;;;;;;;3.97;1.80;;;8.50;96.20;;;;;;5045490;28;20972;-71
2022/02/19 10:23:45;;;;;;;4.57;1.97;;;8.60;96.50;;;;;;5027135;28;20533;-72
2022/02/19 10:26:12;;;;;;;5.33;2.00;;;8.40;96.20;;;;;;5045150;28;20454;-72
2022/02/19 10:28:38;;;;;;;3.83;1.90;;;8.50;96.20;;;;;;5043894;28;20810;-71
2022/02/19 10:31:31;;;;;;;7.67;2.43;;;8.50;95.90;;;;;;5044985;28;20424;-70
2022/02/19 10:34:14;;;;;;;9.70;2.77;;;8.60;95.90;;;;;;5043349;28;20455;-72
2022/02/19 10:36:46;;;;;;;6.33;2.27;;;8.60;96.10;;;;;;5045242;28;20796;-72
2022/02/19 10:39:12;;;;;;;5.70;2.03;;;8.70;96.40;;;;;;5044942;28;20418;-69
2022/02/19 10:41:39;;;;;;;4.40;1.63;;;8.70;96.40;;;;;;5044961;28;20423;-72
2022/02/19 10:44:21;;;;;;;3.70;1.80;;;8.90;95.70;;;;;;5044438;28;20416;-71
2022/02/19 10:46:48;;;;;;;5.07;1.77;;;8.80;95.10;;;;;;5044538;28;20549;-71
2022/02/19 10:49:13;;;;;;;5.13;2.00;;;8.80;95.30;;;;;;5047994;28;20495;-70
2022/02/19 10:51:43;;;;;;;4.23;2.20;;;8.90;94.90;;;;;;5045053;28;20512;-72
2022/02/19 10:54:11;;;;;;;4.13;1.77;;;8.90;94.40;;;;;;5026466;28;20181;-72
2022/02/19 10:56:37;;;;;;;4.30;1.60;;;8.90;95.00;;;;;;5044169;28;20440;-73
2022/02/19 10:59:08;;;;;;;4.73;1.50;;;9.20;94.90;;;;;;5043344;28;20423;-72
2022/02/19 11:01:50;;;;;;;3.77;1.50;;;9.20;94.20;;;;;;5044062;28;20416;-72
2022/02/19 11:04:21;;;;;;;6.37;1.60;;;9.10;94.80;;;;;;5044124;28;20694;-73
2022/02/19 11:06:48;;;;;;;5.87;1.93;;;9.00;94.00;;;;;;5044075;28;20468;-73
2022/02/19 11:09:14;;;;;;;6.50;2.40;;;9.10;93.80;;;;;;5044096;28;20519;-71
2022/02/19 11:11:45;;;;;;;4.60;1.70;;;9.40;94.40;;;;;;5044134;28;20467;-73
2022/02/19 11:14:13;;;;;;;4.93;1.60;;;9.50;93.60;;;;;;5025689;28;20417;-72
2022/02/19 11:16:39;;;;;;;5.73;1.80;;;9.80;93.40;;;;;;5025982;28;20541;-72
2022/02/19 11:19:06;;;;;;;5.17;2.13;;;10.40;91.80;;;;;;5044001;28;20537;-71
2022/02/19 11:21:33;;;;;;;5.03;1.93;;;11.10;91.00;;;;;;5044096;28;20422;-74
2022/02/19 11:24:07;;;;;;;4.80;1.83;;;11.40;88.40;;;;;;5044354;28;20431;-72
2022/02/19 11:26:34;;;;;;;3.63;1.80;;;11.00;89.00;;;;;;5044251;28;20552;-71
2022/02/19 11:29:03;;;;;;;3.57;1.40;;;11.10;89.90;;;;;;5043548;28;20412;-72
2022/02/19 11:31:31;;;;;;;3.33;1.63;;;11.10;89.00;;;;;;5043933;28;20431;-72
2022/02/19 11:34:04;;;;;;;3.17;2.10;;;11.90;88.60;;;;;;5026008;28;20421;-71
2022/02/19 11:36:31;;;;;;;4.43;2.20;;;12.70;84.00;;;;;;5044151;28;20443;-72
2022/02/19 11:38:57;;;;;;;3.27;1.67;;;13.20;83.00;;;;;;5044377;28;20516;-72
2022/02/19 11:41:45;;;;;;;3.87;1.77;;;13.50;80.00;;;;;;5043920;28;20453;-73
2022/02/19 11:44:20;;;;;;;3.03;1.57;;;13.50;77.40;;;;;;5025625;28;20840;-73
2022/02/19 11:46:46;;;;;;;3.10;1.50;;;12.60;77.10;;;;;;5043198;28;20467;-72
2022/02/19 11:49:20;;;;;;;3.77;1.40;;;;;;;;;;5043831;28;20423;-71
2022/02/19 11:51:47;;;;;;;4.57;1.50;;;;;;;;;;5025817;28;20583;-73
2022/02/19 11:54:13;;;;;;;7.63;1.70;;;;;;;;;;5043475;28;20918;-72
2022/02/19 11:56:40;;;;;;;4.33;1.60;;;;;;;;;;5043722;28;20521;-72
2022/02/19 11:59:09;;;;;;;2.90;1.50;;;;;;;;;;5043503;28;20411;-73
2022/02/19 12:01:35;;;;;;;3.63;1.90;;;;;;;;;;5046960;28;20496;-71
2022/02/19 12:04:10;;;;;;;5.23;1.83;;;;;;;;;;5045561;28;20431;-73
2022/02/19 12:06:59;;;;;;;5.13;1.97;;;;;;;;;;5043298;28;20463;-73
2022/02/19 12:09:25;;;;;;;6.23;2.13;;;;;;;;;;5038378;28;20420;-72
2022/02/19 12:12:04;;;;;;;3.17;1.73;;;;;;;;;;5047392;28;20413;-74
2022/02/19 12:14:51;;;;;;;3.67;1.90;;;;;;;;;;5047334;28;20409;-72
2022/02/19 12:17:18;;;;;;;4.33;2.00;;;;;;;;;;5047283;28;20764;-71
2022/02/19 12:19:59;;;;;;;6.70;2.27;;;;;;;;;;5047109;28;20412;-70
2022/02/19 12:22:49;;;;;;;5.90;2.10;;;;;;;;;;5029259;28;20449;-72
2022/02/19 12:25:19;;;;;;;6.87;1.87;;;;;;;;;;5047496;28;20487;-72
2022/02/19 12:28:05;;;;;;;4.60;1.30;;;;;;;;;;5046695;28;20956;-72
2022/02/19 12:30:31;;;;;;;3.57;1.43;;;;;;;;;;5047108;28;20466;-74
2022/02/19 12:33:01;;;;;;;4.27;1.13;;;;;;;;;;5046729;28;20405;-72
2022/02/19 12:35:38;;;;;;;1.47;1.03;;;;;;;;;;5029006;28;20445;-72
2022/02/19 12:38:05;;;;;;;4.73;1.60;;;;;;;;;;5046237;28;20495;-71
2022/02/19 12:40:31;;;;;;;1.90;1.53;;;;;;;;;;5028862;28;20431;-71
2022/02/19 12:42:58;;;;;;;3.20;1.50;;;;;;;;;;5028640;28;20432;-73
2022/02/19 12:45:27;;;;;;;4.13;1.43;;;;;;;;;;5047121;28;20794;-71
2022/02/19 12:47:53;;;;;;;5.07;1.53;;;;;;;;;;5046371;28;20459;-71
2022/02/19 12:50:20;;;;;;;2.07;1.50;;;;;;;;;;5046728;28;20406;-71
2022/02/19 12:52:50;;;;;;;3.63;1.33;;;;;;;;;;5046264;28;20501;-73
2022/02/19 12:55:18;;;;;;;2.70;1.50;;;;;;;;;;5046785;28;20862;-73
2022/02/19 12:57:45;;;;;;;1.97;1.33;;;;;;;;;;5046750;28;20417;-72
2022/02/19 13:00:12;;;;;;;2.03;1.00;;;;;;;;;;5046016;28;20447;-71
2022/02/19 13:02:38;;;;;;;4.07;1.47;;;;;;;;;;5046132;28;20451;-72
2022/02/19 13:05:10;;;;;;;3.07;1.20;;;;;;;;;;5046101;28;20421;-72
2022/02/19 13:07:36;;;;;;;4.17;1.20;;;;;;;;;;5044889;28;20793;-71
2022/02/19 13:10:04;;;;;;;4.00;1.63;;;;;;;;;;5045876;28;20454;-71
2022/02/19 13:12:31;;;;;;;4.03;1.70;;;;;;;;;;5046157;28;20417;-70
2022/02/19 13:14:58;;;;;;;2.43;1.33;;;;;;;;;;5045886;28;20463;-71
2022/02/19 13:17:25;;;;;;;3.60;1.70;;;;;;;;;;5046027;28;20420;-72